Ravalli County (6S5)
Hamilton, MT
Field Elevation: 3642
Lat: 45°15.05N  Long: 114°07.31W
CTAF/Unicom Freq: 122.8000
   
     For Weather-by-Phone, call 406-375-9149
Weather Advisories
10/31/2014 21:09 Z
Altimeter 29.74" Hg
Wind 338° @ 5 KT
Gusts --
Visibility 10 SM
Temperature 15° C (59° F)
Dewpoint 5° C (41° F)
Relative Humidity 51%
Density Altitude 4,595 feet
Condensation Altitude 8,642 feet
  Wind and Runways
Indicated Runway = 34
History
 
 
More Info
All DigiWx sites map
NOAA Forecast
 
Airport IQ 5010
(S59) Libby
(79S) Fort Benton
 
about DigiWx
 
FAA Disclaimer: The data displayed is for advisory purposes only and is not to be used for flight planning or operations. For official data, please call 406-375-9149 to hear the current automated AWOS voice message.
  METAR 6S5 312109Z AUTO 34005KT 10SM 15/05 A2974